Pointblank, TX (77364)

11:50 AM CDT on May 22, 2015 (GMT -0500)
KTXOAKHU2 | | Change Station
CLOSE
Current Station
Personal Weather Station
Location: Oakhurst, TX
Elevation: 181 ft
Nearby Weather Stations

Elev 181 ft 30.83 °N, 95.33 °W | Updated 6 seconds ago

Overcast
Overcast
67.2 °F
Feels Like 67.2 °F
N
0.0
Wind Variable Wind from NNE
Gusts 5.0 mph

Today
High -- | Low -- °F
--% Chance of Precip.
Yesterday
High -- | Low -- °F
Precip. -- in
6:22 AM 8:13 PM
Waxing Crescent, 22% visible
Pressure 30.15 in
Visibility 10.0 miles
Clouds Overcast 600 ft
Dew Point 64 °F
Humidity 91%
Rainfall 0.00 in
Snow Depth Not available.
UV 3 out of 12
Pollen 3.80 out of 12
Air Quality Not available.
Flu Activity Sporadic
METAR KUTS 221553Z AUTO 08004KT 10SM OVC006 18/16 A3016 RMK AO2 CIG 004V010 SLP208 T01830161

More Conditions Fewer Conditions

Pressure 30.15 in
Visibility 10.0 miles
Clouds Overcast 600 ft
Dew Point 64 °F
Humidity 91%
Rainfall 0.00 in
Snow Depth Not available.
UV 3 out of 12
Pollen 3.80 out of 12
Air Quality Not available.
Flu Activity Sporadic
METAR KUTS 221553Z AUTO 08004KT 10SM OVC006 18/16 A3016 RMK AO2 CIG 004V010 SLP208 T01830161

More Conditions Fewer Conditions

10-Day Weather Forecast

Almanac

Astronomy

May. 22, 2015 Rise Set
Actual Time
Civil Twilight
Nautical Twilight
Astronomical Twilight
Moon
Length of Visible Light
Length of Day
Tomorrow will be .
, % of the Moon is Illuminated

Today's Extremes

State Highs State Lows

Community

WunderPhotos

Upload Photos

1,823,263 photos uploaded!

WunderBlogs® & News

Nearby

Air Quality

  Air Quality AQ Index Pollutant
Not available.

Snow Depth

Station Depth Elevation

Earthquake Activity

City Distance Mag. Time & Date
Minimum magnitude displayed is 2.5.

Coastal Water Temperatures

Place Temperature

Stations

Nearby Weather Stations

Station Location Temp. Windchill Dew Point Humidity Wind Precip. Elev Updated Type